Time;durP1;ratioP1;P1;durP2;ratioP2;P2;SDS_P1;SDS_P2;PMS_P1;PMS_P2;Temp;Humidity;BMP_temperature;BMP_pressure;BME280_temperature;BME280_humidity;BME280_pressure;Samples;Min_cycle;Max_cycle;Signal;HPM_P1;HPM_P2
2023/06/13 00:00:10;;;;;;;1.02;1.00;;;26.40;49.50;;;;;;5038679;28;20033;-78
2023/06/13 00:02:39;;;;;;;0.57;0.57;;;26.30;49.60;;;;;;5043566;28;20033;-77
2023/06/13 00:05:21;;;;;;;0.77;0.77;;;26.30;49.50;;;;;;5048860;28;20044;-77
2023/06/13 00:07:49;;;;;;;0.60;0.60;;;26.40;49.60;;;;;;5006197;28;20058;-77
2023/06/13 00:10:15;;;;;;;1.52;1.20;;;26.40;49.60;;;;;;5011354;28;20486;-77
2023/06/13 00:12:44;;;;;;;0.93;0.63;;;26.30;49.50;;;;;;5010995;28;20268;-77
2023/06/13 00:15:11;;;;;;;0.73;0.73;;;26.20;49.60;;;;;;5026274;28;20043;-77
2023/06/13 00:17:38;;;;;;;0.90;0.90;;;26.30;49.50;;;;;;5019311;28;20041;-77
2023/06/13 00:20:08;;;;;;;0.80;0.80;;;26.20;49.60;;;;;;5025494;28;20057;-77
2023/06/13 00:22:34;;;;;;;0.93;0.80;;;26.30;49.60;;;;;;5010867;28;20050;-78
2023/06/13 00:25:01;;;;;;;0.85;0.85;;;26.10;49.70;;;;;;5011262;28;20116;-77
2023/06/13 00:27:27;;;;;;;0.60;0.60;;;26.20;49.70;;;;;;4997112;28;20046;-77
2023/06/13 00:29:53;;;;;;;0.90;0.73;;;26.30;49.70;;;;;;5000504;28;20116;-77
2023/06/13 00:32:19;;;;;;;5.97;1.58;;;26.20;49.70;;;;;;4994408;28;20037;-77
2023/06/13 00:34:46;;;;;;;0.93;0.90;;;26.10;49.70;;;;;;4978639;28;20038;-77
2023/06/13 00:37:16;;;;;;;0.80;0.80;;;26.20;49.80;;;;;;4994281;28;20084;-77
2023/06/13 00:39:43;;;;;;;3.03;0.98;;;26.00;49.80;;;;;;5030202;28;20639;-77
2023/06/13 00:42:10;;;;;;;1.88;1.02;;;26.20;49.80;;;;;;5081975;28;20025;-77
2023/06/13 00:44:36;;;;;;;0.65;0.65;;;26.10;49.80;;;;;;5022900;28;20041;-78
2023/06/13 00:47:04;;;;;;;0.85;0.85;;;26.30;49.80;;;;;;5036031;28;20037;-77
2023/06/13 00:49:30;;;;;;;1.25;1.05;;;26.10;49.90;;;;;;5052726;28;20068;-77
2023/06/13 00:52:04;;;;;;;2.67;0.75;;;26.20;49.80;;;;;;5068092;28;20037;-78
2023/06/13 00:54:34;;;;;;;1.33;0.90;;;26.10;49.90;;;;;;5072488;28;20461;-77
2023/06/13 00:57:01;;;;;;;0.80;0.80;;;26.10;49.90;;;;;;5068139;28;20037;-77
2023/06/13 00:59:27;;;;;;;2.10;1.15;;;26.20;49.90;;;;;;5045576;28;20098;-77
2023/06/13 01:01:54;;;;;;;0.80;0.80;;;26.20;49.80;;;;;;5049069;28;20415;-77
2023/06/13 01:04:20;;;;;;;2.97;1.00;;;26.30;49.80;;;;;;5051056;28;20372;-76
2023/06/13 01:06:47;;;;;;;0.90;0.90;;;26.20;49.80;;;;;;5065179;28;20036;-77
2023/06/13 01:09:17;;;;;;;0.90;0.90;;;26.20;49.80;;;;;;5070008;28;20048;-77
2023/06/13 01:11:46;;;;;;;0.98;0.98;;;26.20;49.80;;;;;;5032982;28;20128;-77
2023/06/13 01:14:20;;;;;;;1.13;1.02;;;26.30;49.80;;;;;;5028555;28;20051;-77
2023/06/13 01:16:54;;;;;;;0.80;0.80;;;26.20;49.80;;;;;;5032328;28;20047;-77
2023/06/13 01:19:41;;;;;;;0.90;0.90;;;26.20;49.80;;;;;;5048053;28;20041;-77
2023/06/13 01:22:52;;;;;;;3.83;0.93;;;26.10;49.80;;;;;;4999155;28;20508;-77
2023/06/13 01:25:52;;;;;;;0.90;0.90;;;26.20;49.80;;;;;;5066820;28;20091;-77
2023/06/13 01:28:22;;;;;;;1.50;0.90;;;26.10;50.00;;;;;;5031117;28;20650;-77
2023/06/13 01:30:49;;;;;;;0.90;0.90;;;26.10;50.00;;;;;;5044456;28;20028;-77
2023/06/13 01:33:16;;;;;;;0.82;0.82;;;26.10;50.00;;;;;;5036515;28;20045;-78
2023/06/13 01:35:43;;;;;;;0.98;0.98;;;26.00;50.00;;;;;;5048236;28;20178;-77
2023/06/13 01:38:09;;;;;;;0.85;0.85;;;26.10;50.00;;;;;;5049883;28;20434;-77
2023/06/13 01:40:36;;;;;;;0.90;0.90;;;26.20;50.00;;;;;;5030609;28;20049;-77
2023/06/13 01:43:02;;;;;;;1.00;1.00;;;26.20;50.00;;;;;;5034239;28;20800;-77
2023/06/13 01:45:28;;;;;;;1.00;0.90;;;26.10;50.00;;;;;;5037128;28;20139;-77
2023/06/13 01:48:12;;;;;;;1.40;1.30;;;26.10;50.00;;;;;;5036806;28;20109;-77
2023/06/13 01:50:55;;;;;;;1.45;1.10;;;26.20;50.00;;;;;;5035243;28;20486;-77
2023/06/13 01:53:30;;;;;;;1.08;1.08;;;26.10;50.00;;;;;;5039824;28;20037;-77
2023/06/13 01:56:01;;;;;;;1.30;1.20;;;26.20;50.00;;;;;;5031155;28;20037;-77
2023/06/13 01:58:56;;;;;;;1.45;1.27;;;26.20;50.00;;;;;;5067171;28;20029;-76
2023/06/13 02:01:24;;;;;;;1.08;1.02;;;26.10;50.00;;;;;;5068836;28;20064;-77
2023/06/13 02:03:50;;;;;;;1.20;1.15;;;26.20;50.00;;;;;;5053086;28;20055;-77
2023/06/13 02:06:17;;;;;;;1.25;1.15;;;26.20;50.00;;;;;;5075288;28;20040;-77
2023/06/13 02:08:45;;;;;;;1.20;1.10;;;26.10;50.00;;;;;;5040153;28;20047;-77
2023/06/13 02:11:12;;;;;;;1.13;1.10;;;26.10;50.00;;;;;;5105627;28;20115;-77
2023/06/13 02:13:38;;;;;;;1.50;1.40;;;26.10;50.00;;;;;;5103620;28;20481;-77
2023/06/13 02:16:05;;;;;;;1.13;1.02;;;26.10;50.10;;;;;;5081068;28;20035;-77
2023/06/13 02:18:33;;;;;;;3.78;1.23;;;26.10;50.10;;;;;;5113977;28;20084;-77
2023/06/13 02:20:59;;;;;;;2.10;1.80;;;26.00;50.20;;;;;;5092719;28;20051;-77
2023/06/13 02:23:27;;;;;;;1.10;1.10;;;26.00;50.20;;;;;;5096388;28;20031;-77
2023/06/13 02:25:52;;;;;;;1.10;1.05;;;26.00;50.20;;;;;;5079496;28;20051;-77
2023/06/13 02:28:19;;;;;;;1.35;1.25;;;26.00;50.20;;;;;;5104621;28;20032;-77
2023/06/13 02:30:48;;;;;;;1.30;1.20;;;26.00;50.20;;;;;;5077308;28;20073;-77
2023/06/13 02:33:15;;;;;;;1.50;1.40;;;26.00;50.20;;;;;;5054659;28;20060;-77
2023/06/13 02:35:45;;;;;;;1.45;1.23;;;26.00;50.20;;;;;;5034238;28;20041;-77
2023/06/13 02:38:12;;;;;;;1.25;1.15;;;26.10;50.20;;;;;;5035555;28;20470;-77
2023/06/13 02:40:38;;;;;;;0.93;0.93;;;26.10;50.20;;;;;;5033407;28;20124;-77
2023/06/13 02:43:05;;;;;;;5.13;1.50;;;26.10;50.20;;;;;;5033790;28;20412;-77
2023/06/13 02:45:31;;;;;;;1.55;1.45;;;26.10;50.10;;;;;;5058703;28;20040;-77
2023/06/13 02:47:58;;;;;;;1.83;1.13;;;26.00;50.10;;;;;;5053079;28;20524;-77
2023/06/13 02:50:24;;;;;;;1.60;1.50;;;26.00;50.10;;;;;;5072352;28;20040;-77
2023/06/13 02:52:50;;;;;;;1.58;1.48;;;26.00;50.10;;;;;;5033461;28;20030;-77
2023/06/13 02:55:17;;;;;;;1.30;1.20;;;26.10;50.10;;;;;;5055093;28;20044;-77
2023/06/13 02:57:44;;;;;;;1.45;1.10;;;26.00;50.10;;;;;;5053265;28;20110;-77
2023/06/13 03:00:12;;;;;;;1.08;1.08;;;26.00;50.10;;;;;;5061032;28;20043;-77
2023/06/13 03:02:43;;;;;;;3.42;1.58;;;26.00;50.10;;;;;;5072161;28;20033;-77
2023/06/13 03:05:11;;;;;;;1.38;0.95;;;26.00;50.10;;;;;;5061580;28;20048;-77
2023/06/13 03:07:42;;;;;;;2.17;1.40;;;26.00;50.10;;;;;;5058077;28;20033;-77
2023/06/13 03:10:09;;;;;;;2.47;1.60;;;26.00;50.20;;;;;;5059729;28;20120;-77
2023/06/13 03:12:40;;;;;;;1.30;1.20;;;25.90;49.80;;;;;;5033114;28;20464;-77
2023/06/13 03:15:07;;;;;;;1.35;1.10;;;26.00;50.30;;;;;;5062434;28;20119;-77
2023/06/13 03:17:34;;;;;;;1.40;1.30;;;26.10;50.30;;;;;;5068460;28;20037;-77
2023/06/13 03:20:01;;;;;;;2.78;1.10;;;26.00;50.20;;;;;;5073332;28;20043;-77
2023/06/13 03:22:27;;;;;;;1.52;1.40;;;26.00;50.20;;;;;;5054821;28;20041;-77
2023/06/13 03:24:53;;;;;;;1.40;1.30;;;26.00;50.20;;;;;;5052981;28;20037;-77
2023/06/13 03:27:19;;;;;;;1.50;1.40;;;26.10;50.20;;;;;;5045958;28;20025;-77
2023/06/13 03:29:46;;;;;;;1.13;1.02;;;26.10;50.20;;;;;;5051942;28;20493;-77
2023/06/13 03:32:13;;;;;;;1.20;1.20;;;26.10;50.20;;;;;;5036946;28;20021;-77
2023/06/13 03:34:40;;;;;;;1.48;1.38;;;26.10;50.20;;;;;;5047361;28;20121;-77
2023/06/13 03:37:10;;;;;;;1.30;1.20;;;26.10;50.20;;;;;;5042078;28;20442;-77
2023/06/13 03:39:37;;;;;;;1.33;1.23;;;26.20;50.20;;;;;;5022248;28;20060;-77
2023/06/13 03:42:03;;;;;;;1.17;1.08;;;26.20;50.10;;;;;;5033198;28;20025;-76
2023/06/13 03:44:30;;;;;;;1.13;1.13;;;26.00;50.10;;;;;;5051458;28;20047;-78
2023/06/13 03:46:57;;;;;;;2.78;1.50;;;26.00;50.10;;;;;;5053326;28;20029;-77
2023/06/13 03:49:24;;;;;;;1.63;1.52;;;26.00;50.20;;;;;;5023801;28;20513;-78
2023/06/13 03:51:50;;;;;;;2.08;1.55;;;26.00;50.20;;;;;;5048045;28;20032;-77
2023/06/13 03:54:17;;;;;;;1.70;1.60;;;26.00;50.20;;;;;;5032224;28;20040;-78
2023/06/13 03:56:43;;;;;;;1.73;1.50;;;26.00;50.20;;;;;;5052945;28;20033;-77
2023/06/13 03:59:08;;;;;;;1.95;1.40;;;26.00;50.20;;;;;;5053669;28;20047;-77
2023/06/13 04:01:35;;;;;;;1.30;1.20;;;26.00;50.10;;;;;;5050669;28;20076;-77
2023/06/13 04:04:01;;;;;;;1.58;1.48;;;26.00;50.20;;;;;;5034305;28;20488;-77
2023/06/13 04:06:28;;;;;;;1.50;1.40;;;25.90;49.80;;;;;;5051022;28;20120;-77
2023/06/13 04:08:57;;;;;;;3.85;2.00;;;26.00;50.20;;;;;;5034484;28;20037;-77
2023/06/13 04:11:24;;;;;;;1.83;1.63;;;26.00;50.20;;;;;;5034467;28;20091;-77
2023/06/13 04:13:50;;;;;;;2.45;1.27;;;25.90;49.80;;;;;;5033982;28;20068;-77
2023/06/13 04:16:16;;;;;;;2.38;2.00;;;26.00;50.20;;;;;;5034007;28;20025;-77
2023/06/13 04:18:43;;;;;;;4.20;1.70;;;26.10;50.20;;;;;;5034135;28;20132;-77
2023/06/13 04:21:09;;;;;;;2.88;1.30;;;26.00;50.20;;;;;;5050189;28;20053;-77
2023/06/13 04:23:35;;;;;;;1.63;1.50;;;26.00;50.20;;;;;;5050410;28;20108;-77
2023/06/13 04:26:05;;;;;;;2.80;1.90;;;26.00;50.20;;;;;;5050505;28;20037;-77
2023/06/13 04:28:35;;;;;;;4.20;1.90;;;26.10;50.20;;;;;;5049788;28;20033;-77
2023/06/13 04:31:03;;;;;;;1.77;1.40;;;26.10;50.20;;;;;;5050285;28;20389;-77
2023/06/13 04:33:29;;;;;;;2.65;1.70;;;26.00;50.20;;;;;;5070121;28;20037;-77
2023/06/13 04:36:03;;;;;;;1.67;1.58;;;25.90;49.70;;;;;;5053610;28;20109;-77
2023/06/13 04:38:31;;;;;;;1.70;1.60;;;26.10;50.20;;;;;;5053546;28;20039;-77
2023/06/13 04:40:57;;;;;;;1.52;1.42;;;26.10;50.20;;;;;;5070136;28;20079;-77
2023/06/13 04:43:23;;;;;;;1.30;1.20;;;26.00;50.10;;;;;;5053309;28;20094;-77
2023/06/13 04:45:49;;;;;;;3.40;1.50;;;26.00;50.10;;;;;;5036942;28;20037;-77
2023/06/13 04:48:15;;;;;;;1.88;1.67;;;26.00;50.10;;;;;;5069886;28;20056;-78
2023/06/13 04:50:41;;;;;;;1.60;1.50;;;26.00;50.10;;;;;;5069947;28;20349;-77
2023/06/13 04:53:11;;;;;;;1.67;1.58;;;26.00;50.10;;;;;;5069854;28;20044;-77
2023/06/13 04:55:38;;;;;;;1.60;1.50;;;26.00;50.10;;;;;;5053026;28;20388;-77
2023/06/13 04:58:05;;;;;;;3.28;1.75;;;26.00;50.10;;;;;;5069764;28;20128;-77
2023/06/13 05:00:31;;;;;;;1.83;1.70;;;26.00;50.10;;;;;;5069571;28;20066;-77
2023/06/13 05:03:00;;;;;;;1.58;1.45;;;26.00;50.20;;;;;;5069571;28;20062;-77
2023/06/13 05:05:26;;;;;;;2.00;1.80;;;26.00;50.20;;;;;;5053594;28;20052;-77
2023/06/13 05:07:59;;;;;;;2.40;1.70;;;26.00;50.30;;;;;;5052386;28;20029;-77
2023/06/13 05:10:26;;;;;;;5.05;1.63;;;26.00;50.30;;;;;;5051501;28;20041;-77
2023/06/13 05:12:53;;;;;;;2.03;1.73;;;26.00;50.30;;;;;;5052113;28;20075;-77
2023/06/13 05:15:23;;;;;;;2.03;1.92;;;26.20;50.30;;;;;;5051775;28;20154;-77
2023/06/13 05:17:52;;;;;;;2.80;1.77;;;26.00;50.30;;;;;;5050657;28;20032;-77
2023/06/13 05:20:22;;;;;;;2.05;1.88;;;26.20;50.30;;;;;;5034077;28;20037;-77
2023/06/13 05:22:52;;;;;;;2.25;2.05;;;26.10;50.30;;;;;;5050680;28;20373;-77
2023/06/13 05:25:19;;;;;;;2.22;1.85;;;26.00;50.30;;;;;;5034139;28;20043;-77
2023/06/13 05:27:46;;;;;;;2.92;1.65;;;26.10;50.30;;;;;;5052091;28;20037;-77
2023/06/13 05:30:12;;;;;;;3.17;1.92;;;26.00;50.20;;;;;;5051867;28;20063;-77
2023/06/13 05:32:38;;;;;;;2.30;2.10;;;26.00;50.20;;;;;;5051915;28;20064;-77
2023/06/13 05:35:08;;;;;;;3.63;2.20;;;26.00;50.20;;;;;;5051765;28;20044;-77
2023/06/13 05:37:37;;;;;;;2.20;2.00;;;26.10;50.20;;;;;;5051885;28;20033;-77
2023/06/13 05:40:05;;;;;;;2.60;2.40;;;26.00;50.20;;;;;;5055877;28;20056;-77
2023/06/13 05:42:34;;;;;;;2.88;2.05;;;26.00;50.20;;;;;;5055697;28;20418;-77
2023/06/13 05:45:05;;;;;;;3.65;2.38;;;26.00;50.20;;;;;;5054453;28;20040;-77
2023/06/13 05:47:31;;;;;;;2.50;2.30;;;26.00;50.20;;;;;;5056024;28;20503;-77
2023/06/13 05:49:58;;;;;;;2.33;2.13;;;26.00;50.20;;;;;;5055660;28;20040;-77
2023/06/13 05:52:24;;;;;;;2.85;2.58;;;26.00;50.20;;;;;;5055562;28;20025;-77
2023/06/13 05:54:51;;;;;;;1.60;1.50;;;26.10;50.30;;;;;;5055382;28;20104;-74
2023/06/13 05:57:17;;;;;;;2.33;2.15;;;26.10;50.40;;;;;;5054927;28;20033;-74
2023/06/13 05:59:43;;;;;;;1.55;1.45;;;26.00;50.20;;;;;;5054906;28;20571;-75
2023/06/13 06:02:10;;;;;;;2.25;1.63;;;26.10;49.40;;;;;;5054751;28;20112;-71
2023/06/13 06:04:37;;;;;;;4.63;1.85;;;26.00;48.60;;;;;;5054875;28;20388;-71
2023/06/13 06:07:03;;;;;;;2.42;2.05;;;26.00;49.10;;;;;;5054805;28;20391;-71
2023/06/13 06:09:29;;;;;;;2.55;1.63;;;26.00;48.80;;;;;;5054707;28;20083;-71
2023/06/13 06:11:56;;;;;;;3.83;2.13;;;26.10;48.80;;;;;;5054636;28;20025;-70
2023/06/13 06:14:22;;;;;;;3.08;2.72;;;26.10;51.20;;;;;;5054157;28;20056;-72
2023/06/13 06:16:50;;;;;;;2.13;1.92;;;26.20;53.10;;;;;;5053530;28;20414;-71
2023/06/13 06:19:16;;;;;;;2.42;2.08;;;26.10;50.80;;;;;;5054371;28;20106;-71
2023/06/13 06:21:42;;;;;;;2.72;1.48;;;26.10;50.50;;;;;;5054409;28;20056;-71
2023/06/13 06:24:08;;;;;;;1.70;1.60;;;26.10;49.80;;;;;;5054331;28;20041;-68
2023/06/13 06:26:34;;;;;;;2.58;1.60;;;26.30;49.50;;;;;;5054314;28;20056;-68
2023/06/13 06:29:00;;;;;;;4.00;1.95;;;26.10;50.40;;;;;;5054339;28;20052;-68
2023/06/13 06:31:27;;;;;;;4.57;1.27;;;26.20;49.30;;;;;;5053931;28;20844;-67
2023/06/13 06:33:53;;;;;;;1.88;1.65;;;26.20;49.80;;;;;;5059360;28;20033;-70
2023/06/13 06:36:22;;;;;;;1.98;1.85;;;26.20;49.10;;;;;;5056988;28;20032;-71
2023/06/13 06:38:49;;;;;;;3.40;2.70;;;26.20;48.80;;;;;;5054115;28;20029;-71
2023/06/13 06:41:16;;;;;;;2.75;2.05;;;26.00;49.20;;;;;;5067284;28;20131;-70
2023/06/13 06:43:42;;;;;;;2.67;1.85;;;26.00;48.90;;;;;;5091412;28;20051;-69
2023/06/13 06:46:10;;;;;;;4.60;2.13;;;26.20;48.90;;;;;;5071228;28;20043;-70
2023/06/13 06:48:36;;;;;;;2.90;1.65;;;26.00;48.50;;;;;;5050824;28;20064;-70
2023/06/13 06:51:02;;;;;;;5.32;1.75;;;26.10;48.50;;;;;;5050365;28;20425;-70
2023/06/13 06:53:29;;;;;;;4.05;2.00;;;26.10;48.60;;;;;;5050704;28;20477;-71
2023/06/13 06:55:55;;;;;;;1.70;1.60;;;26.00;48.50;;;;;;5051550;28;20056;-75
2023/06/13 06:58:21;;;;;;;1.80;1.42;;;26.00;48.30;;;;;;5052645;28;20094;-76
2023/06/13 07:00:47;;;;;;;2.72;1.55;;;26.20;48.10;;;;;;5051591;28;20045;-73
2023/06/13 07:03:13;;;;;;;4.50;1.38;;;26.10;48.00;;;;;;5034536;28;20052;-72
2023/06/13 07:05:40;;;;;;;4.72;2.58;;;26.20;47.80;;;;;;5050730;28;20033;-73
2023/06/13 07:08:07;;;;;;;3.53;2.10;;;26.30;47.70;;;;;;5034148;28;20116;-72
2023/06/13 07:10:33;;;;;;;1.92;1.83;;;26.10;47.70;;;;;;5050937;28;20056;-73
2023/06/13 07:12:59;;;;;;;2.03;1.83;;;26.30;47.60;;;;;;5051848;28;20033;-77
2023/06/13 07:15:25;;;;;;;5.32;1.75;;;26.30;47.60;;;;;;5035116;28;20087;-73
2023/06/13 07:17:51;;;;;;;1.80;1.70;;;26.30;47.60;;;;;;5067604;28;20081;-77
2023/06/13 07:20:19;;;;;;;2.38;2.00;;;26.20;47.60;;;;;;5052642;28;20504;-78
2023/06/13 07:22:45;;;;;;;2.25;1.75;;;26.30;47.40;;;;;;5054129;28;20520;-75
2023/06/13 07:25:11;;;;;;;2.95;2.50;;;26.40;47.40;;;;;;5054242;28;20041;-76
2023/06/13 07:27:37;;;;;;;1.65;1.55;;;26.30;47.40;;;;;;5054414;28;20026;-78
2023/06/13 07:30:04;;;;;;;3.42;1.83;;;26.30;47.30;;;;;;5054463;28;20023;-77
2023/06/13 07:32:30;;;;;;;2.33;2.13;;;26.10;47.30;;;;;;5054121;28;20033;-75
2023/06/13 07:34:56;;;;;;;2.55;2.35;;;26.30;47.20;;;;;;5053524;28;20036;-74
2023/06/13 07:37:22;;;;;;;2.25;2.05;;;26.20;47.30;;;;;;5053045;28;20043;-74
2023/06/13 07:39:48;;;;;;;6.05;3.60;;;26.10;47.20;;;;;;5053037;28;20094;-76
2023/06/13 07:42:14;;;;;;;5.35;1.95;;;26.20;47.20;;;;;;5052890;28;20397;-74
2023/06/13 07:44:41;;;;;;;2.95;2.30;;;26.10;47.20;;;;;;5052413;28;20115;-73
2023/06/13 07:47:08;;;;;;;2.97;2.75;;;26.10;47.20;;;;;;5052507;28;20068;-74
2023/06/13 07:49:34;;;;;;;2.78;2.58;;;26.00;47.20;;;;;;5052437;28;20029;-72
2023/06/13 07:52:00;;;;;;;4.13;3.42;;;26.00;47.40;;;;;;5052435;28;20091;-73
2023/06/13 07:54:26;;;;;;;2.10;2.00;;;26.10;47.50;;;;;;5052393;28;20041;-75
2023/06/13 07:56:52;;;;;;;3.35;2.40;;;26.00;47.40;;;;;;5052506;28;20037;-74
2023/06/13 07:59:18;;;;;;;2.13;1.88;;;26.30;47.40;;;;;;5052801;28;20030;-75
2023/06/13 08:01:44;;;;;;;3.53;3.22;;;26.00;47.30;;;;;;5051421;28;20041;-75
2023/06/13 08:04:10;;;;;;;6.88;3.88;;;26.10;47.30;;;;;;5051132;28;20043;-74
2023/06/13 08:06:39;;;;;;;2.67;1.90;;;26.00;47.20;;;;;;5052395;28;20025;-74
2023/06/13 08:09:08;;;;;;;10.00;4.28;;;26.00;47.20;;;;;;5052509;28;20029;-75
2023/06/13 08:11:35;;;;;;;3.78;3.47;;;26.00;47.10;;;;;;5052500;28;20061;-76
2023/06/13 08:14:01;;;;;;;4.28;2.90;;;26.00;47.30;;;;;;5051042;28;20409;-74
2023/06/13 08:16:28;;;;;;;4.85;4.28;;;26.00;47.30;;;;;;5072759;28;20048;-75
2023/06/13 08:18:54;;;;;;;3.83;3.13;;;26.00;47.40;;;;;;5049233;28;20041;-74
2023/06/13 08:21:20;;;;;;;4.15;3.85;;;26.00;47.40;;;;;;5032707;28;20170;-73
2023/06/13 08:23:46;;;;;;;5.05;4.55;;;26.00;47.40;;;;;;5049703;28;20341;-73
2023/06/13 08:26:13;;;;;;;3.58;3.00;;;26.00;47.30;;;;;;5049441;28;20037;-73
2023/06/13 08:28:39;;;;;;;4.15;3.75;;;26.00;47.20;;;;;;5050224;28;20599;-73
2023/06/13 08:31:05;;;;;;;5.60;3.90;;;26.10;47.20;;;;;;5049920;28;20172;-76
2023/06/13 08:33:31;;;;;;;7.18;3.88;;;26.00;47.20;;;;;;5049640;28;20408;-75
2023/06/13 08:35:57;;;;;;;4.05;3.65;;;26.20;47.10;;;;;;5049490;28;20033;-73
2023/06/13 08:38:24;;;;;;;4.18;3.80;;;26.00;47.10;;;;;;5049558;28;20044;-73
2023/06/13 08:40:50;;;;;;;2.97;2.75;;;26.20;47.10;;;;;;5048960;28;20053;-74
2023/06/13 08:43:16;;;;;;;5.78;3.50;;;26.10;47.00;;;;;;5048837;28;20051;-74
2023/06/13 08:45:43;;;;;;;3.50;3.20;;;26.10;46.90;;;;;;5048603;28;20048;-76
2023/06/13 08:48:10;;;;;;;3.17;2.88;;;26.10;46.90;;;;;;5048848;28;20114;-73
2023/06/13 08:50:37;;;;;;;6.10;3.50;;;26.10;47.10;;;;;;5080673;28;20036;-72
2023/06/13 08:53:03;;;;;;;5.78;3.05;;;26.00;47.10;;;;;;5083367;28;20051;-71
2023/06/13 08:55:32;;;;;;;6.00;2.80;;;26.30;47.10;;;;;;5051140;28;20028;-75
2023/06/13 08:58:00;;;;;;;3.63;3.13;;;26.20;47.00;;;;;;5051691;28;20117;-74
2023/06/13 09:00:33;;;;;;;3.65;2.70;;;26.30;46.80;;;;;;5051391;28;20048;-72
2023/06/13 09:03:00;;;;;;;2.55;2.35;;;26.30;47.00;;;;;;5049709;28;20445;-72
2023/06/13 09:05:28;;;;;;;2.15;2.05;;;26.20;47.10;;;;;;5051275;28;20025;-70
2023/06/13 09:07:56;;;;;;;2.58;2.38;;;26.20;47.20;;;;;;5051361;28;20033;-70
2023/06/13 09:10:22;;;;;;;2.83;2.58;;;26.20;47.30;;;;;;5050080;28;20043;-71
2023/06/13 09:12:51;;;;;;;3.33;2.10;;;26.20;47.40;;;;;;5050815;28;20053;-71
2023/06/13 09:15:17;;;;;;;5.07;2.25;;;26.20;47.40;;;;;;5050998;28;20040;-71
2023/06/13 09:17:44;;;;;;;2.35;2.15;;;26.30;47.40;;;;;;5051176;28;20025;-72
2023/06/13 09:20:10;;;;;;;3.65;2.33;;;26.20;47.30;;;;;;5049693;28;20025;-73
2023/06/13 09:22:37;;;;;;;4.45;2.42;;;26.30;47.70;;;;;;5051292;28;20052;-73
2023/06/13 09:25:04;;;;;;;2.53;2.33;;;26.20;48.80;;;;;;5050775;28;20109;-73
2023/06/13 09:27:31;;;;;;;2.03;1.92;;;26.40;48.50;;;;;;5050599;28;20056;-74
2023/06/13 09:30:03;;;;;;;2.20;1.80;;;26.30;48.10;;;;;;5049934;28;20041;-77
2023/06/13 09:32:30;;;;;;;3.13;2.53;;;26.20;48.10;;;;;;5051262;28;20107;-74
2023/06/13 09:34:57;;;;;;;9.13;2.20;;;26.30;48.00;;;;;;5050869;28;20041;-75
2023/06/13 09:37:27;;;;;;;2.08;1.75;;;26.30;47.90;;;;;;5051896;28;20057;-77
2023/06/13 09:39:53;;;;;;;3.83;1.63;;;26.30;47.80;;;;;;5051081;28;20093;-75
2023/06/13 09:42:20;;;;;;;3.38;1.85;;;26.20;47.70;;;;;;5049756;28;20037;-75
2023/06/13 09:44:48;;;;;;;2.40;2.03;;;26.20;47.60;;;;;;5050701;28;20037;-79
2023/06/13 09:47:23;;;;;;;2.85;2.00;;;26.30;47.40;;;;;;5051700;28;20037;-76
2023/06/13 09:49:56;;;;;;;1.83;1.73;;;26.30;47.40;;;;;;5051421;28;20087;-76
2023/06/13 09:52:24;;;;;;;3.67;1.65;;;26.30;47.30;;;;;;5051369;28;20025;-80
2023/06/13 09:54:53;;;;;;;1.67;1.40;;;26.30;47.30;;;;;;5051355;28;20068;-78
2023/06/13 09:57:21;;;;;;;1.80;1.70;;;26.40;47.30;;;;;;5051012;28;20029;-71
2023/06/13 09:59:49;;;;;;;1.77;1.67;;;26.40;47.30;;;;;;5050607;28;20431;-72
2023/06/13 10:02:17;;;;;;;1.80;1.70;;;26.40;47.20;;;;;;5051051;28;20228;-71
2023/06/13 10:04:44;;;;;;;1.98;1.60;;;26.50;47.20;;;;;;5050487;28;20083;-74
2023/06/13 10:07:11;;;;;;;2.50;1.73;;;26.30;47.20;;;;;;5051155;28;20116;-72
2023/06/13 10:09:40;;;;;;;3.08;1.80;;;26.20;47.20;;;;;;5049404;28;20493;-67
2023/06/13 10:12:17;;;;;;;1.92;1.73;;;26.40;47.20;;;;;;5050338;28;20029;-69
2023/06/13 10:14:50;;;;;;;1.70;1.42;;;26.30;47.20;;;;;;5050444;28;20583;-71
2023/06/13 10:17:20;;;;;;;1.73;1.42;;;26.40;47.20;;;;;;5050425;28;20057;-72
2023/06/13 10:19:53;;;;;;;15.40;2.50;;;26.40;47.50;;;;;;5049199;28;20424;-69
2023/06/13 10:22:20;;;;;;;4.00;2.17;;;26.40;47.90;;;;;;5050906;28;20053;-76
2023/06/13 10:24:50;;;;;;;2.38;1.67;;;26.50;48.20;;;;;;5050775;28;20067;-74
2023/06/13 10:27:20;;;;;;;1.55;1.45;;;26.40;49.30;;;;;;5054995;28;20029;-75
2023/06/13 10:30:29;;;;;;;2.05;1.77;;;26.30;49.00;;;;;;5054668;28;20114;-73
2023/06/13 10:33:07;;;;;;;1.58;1.48;;;26.40;48.80;;;;;;5053950;28;20033;-73
2023/06/13 10:35:51;;;;;;;1.92;1.77;;;26.40;48.70;;;;;;5053535;28;20455;-71
2023/06/13 10:38:48;;;;;;;5.35;1.90;;;26.50;48.70;;;;;;5054346;28;20032;-74
2023/06/13 10:41:36;;;;;;;1.77;1.63;;;26.50;48.30;;;;;;5054961;28;20105;-73
2023/06/13 10:44:44;;;;;;;1.95;1.50;;;26.50;47.90;;;;;;5054059;28;20025;-74
2023/06/13 10:47:10;;;;;;;4.03;1.70;;;26.40;47.40;;;;;;5014801;28;20034;-73
2023/06/13 10:49:43;;;;;;;1.60;1.50;;;26.60;47.00;;;;;;5031429;28;20048;-70
2023/06/13 10:52:11;;;;;;;1.63;1.52;;;26.60;46.70;;;;;;4998438;28;20076;-72
2023/06/13 10:54:39;;;;;;;1.48;1.38;;;26.70;46.60;;;;;;5011540;28;20050;-71
2023/06/13 10:57:06;;;;;;;2.13;1.63;;;26.70;46.60;;;;;;5022827;28;20037;-70
2023/06/13 10:59:37;;;;;;;2.58;1.60;;;26.70;46.40;;;;;;5011559;28;20102;-71
2023/06/13 11:02:05;;;;;;;1.55;1.45;;;26.60;46.30;;;;;;5011411;28;20433;-70
2023/06/13 11:04:32;;;;;;;1.48;1.20;;;26.70;46.30;;;;;;4995043;28;20030;-70
2023/06/13 11:07:22;;;;;;;3.60;1.73;;;26.70;46.20;;;;;;5011019;28;20040;-69
2023/06/13 11:10:13;;;;;;;1.70;1.40;;;26.70;46.10;;;;;;5011195;28;20038;-69
2023/06/13 11:12:41;;;;;;;2.45;2.25;;;26.60;46.20;;;;;;5011193;28;20137;-70
2023/06/13 11:15:28;;;;;;;1.33;1.10;;;26.60;46.10;;;;;;5027053;28;20045;-70
2023/06/13 11:18:09;;;;;;;3.70;1.90;;;26.60;46.00;;;;;;5014031;28;20075;-69
2023/06/13 11:20:57;;;;;;;2.95;1.25;;;26.50;46.10;;;;;;5037223;28;20047;-70
2023/06/13 11:23:24;;;;;;;1.50;1.38;;;26.60;46.10;;;;;;5052987;28;20173;-69
2023/06/13 11:25:51;;;;;;;2.95;1.08;;;26.60;46.00;;;;;;5053184;28;20092;-70
2023/06/13 11:28:18;;;;;;;1.10;1.00;;;26.60;45.90;;;;;;5053371;28;20047;-71
2023/06/13 11:30:47;;;;;;;1.30;1.20;;;26.60;45.90;;;;;;5053198;28;20033;-70
2023/06/13 11:33:14;;;;;;;1.88;1.55;;;26.70;45.80;;;;;;5035279;28;20033;-70
2023/06/13 11:35:49;;;;;;;1.67;1.30;;;26.50;45.70;;;;;;5052751;28;20060;-71
2023/06/13 11:38:34;;;;;;;2.78;2.10;;;26.50;45.70;;;;;;5053300;28;20140;-71
2023/06/13 11:41:00;;;;;;;1.77;1.30;;;26.70;45.60;;;;;;5065321;28;20039;-71
2023/06/13 11:43:28;;;;;;;3.60;1.50;;;26.60;45.50;;;;;;5072870;28;20040;-70
2023/06/13 11:46:02;;;;;;;2.38;1.00;;;26.70;45.50;;;;;;5071190;28;20472;-69
2023/06/13 11:48:28;;;;;;;1.63;1.30;;;26.60;45.40;;;;;;5062971;28;20056;-70
2023/06/13 11:51:14;;;;;;;1.33;1.20;;;26.60;45.40;;;;;;5052770;28;20087;-69
2023/06/13 11:53:55;;;;;;;2.67;1.20;;;26.60;45.30;;;;;;5051198;28;20442;-70
2023/06/13 11:56:23;;;;;;;2.17;1.25;;;26.70;45.30;;;;;;5052478;28;20431;-69
2023/06/13 11:58:51;;;;;;;1.40;1.30;;;26.60;45.30;;;;;;5052880;28;20120;-69
2023/06/13 12:01:20;;;;;;;1.25;1.15;;;26.50;45.30;;;;;;5051296;28;20112;-70
2023/06/13 12:03:47;;;;;;;1.65;1.20;;;26.50;45.20;;;;;;5052534;28;20039;-69
2023/06/13 12:06:15;;;;;;;0.80;0.80;;;26.60;45.20;;;;;;5052229;28;20112;-70
2023/06/13 12:08:47;;;;;;;1.55;0.95;;;26.50;45.20;;;;;;5052387;28;20056;-68
2023/06/13 12:11:18;;;;;;;1.23;1.13;;;26.50;45.30;;;;;;5051130;28;20045;-70
2023/06/13 12:13:55;;;;;;;0.80;0.80;;;26.50;45.10;;;;;;5052316;28;20041;-73
2023/06/13 12:16:26;;;;;;;0.95;0.90;;;26.30;45.30;;;;;;5052322;28;20186;-74
2023/06/13 12:18:56;;;;;;;4.00;1.02;;;26.40;45.20;;;;;;5052190;28;20102;-73
2023/06/13 12:21:27;;;;;;;6.97;1.25;;;26.40;45.20;;;;;;5050363;28;20475;-71
2023/06/13 12:23:53;;;;;;;2.97;1.35;;;26.50;45.20;;;;;;5050995;28;20095;-69
2023/06/13 12:26:19;;;;;;;2.78;1.20;;;26.40;45.50;;;;;;5050743;28;20037;-70
2023/06/13 12:28:47;;;;;;;1.20;1.10;;;26.40;45.40;;;;;;5052068;28;20111;-71
2023/06/13 12:31:14;;;;;;;0.88;0.88;;;26.40;45.40;;;;;;5052043;28;20068;-73
2023/06/13 12:33:41;;;;;;;5.35;1.67;;;26.30;45.30;;;;;;5050695;28;20497;-72
2023/06/13 12:36:09;;;;;;;2.80;1.25;;;26.40;45.30;;;;;;5052111;28;20116;-71
2023/06/13 12:38:35;;;;;;;1.00;1.00;;;26.50;45.20;;;;;;5051944;28;20496;-74
2023/06/13 12:41:13;;;;;;;1.00;1.00;;;26.30;45.20;;;;;;5059274;28;20036;-71
2023/06/13 12:43:43;;;;;;;1.15;1.13;;;26.50;45.10;;;;;;5051782;28;20033;-73
2023/06/13 12:46:09;;;;;;;0.88;0.88;;;26.40;44.90;;;;;;5050293;28;20059;-74
2023/06/13 12:48:38;;;;;;;1.85;1.08;;;26.40;44.90;;;;;;5050711;28;20110;-71
2023/06/13 12:51:05;;;;;;;1.15;1.05;;;26.40;44.50;;;;;;5051395;28;20122;-68
2023/06/13 12:53:31;;;;;;;1.38;1.10;;;26.40;44.40;;;;;;5051270;28;20095;-71
2023/06/13 12:56:01;;;;;;;1.33;1.17;;;26.30;44.60;;;;;;5051111;28;20028;-71